createdAt,value
2023-11-29T00:02:07.873Z,90.71
2023-11-29T00:07:15.926Z,90.61
2023-11-29T00:12:18.915Z,90.72
2023-11-29T00:17:22.423Z,90.68
2023-11-29T00:22:29.198Z,90.63
2023-11-29T00:27:32.172Z,90.48
2023-11-29T00:32:37.512Z,90.64
2023-11-29T00:37:43.275Z,90.64
2023-11-29T00:42:48.504Z,90.65
2023-11-29T00:47:51.456Z,90.63
2023-11-29T00:52:57.579Z,90.69
2023-11-29T00:58:01.949Z,90.68
2023-11-29T01:03:07.575Z,90.65
2023-11-29T01:08:12.109Z,90.65
2023-11-29T01:13:22.760Z,90.64
2023-11-29T01:18:28.752Z,90.68
2023-11-29T01:23:34.379Z,90.69
2023-11-29T01:28:37.898Z,90.61
2023-11-29T01:33:42.303Z,90.58
2023-11-29T01:38:48.176Z,90.68
2023-11-29T01:43:51.064Z,90.65
2023-11-29T01:48:54.847Z,90.71
2023-11-29T01:54:03.713Z,90.64
2023-11-29T01:59:14.901Z,90.69
2023-11-29T02:04:20.261Z,90.75
2023-11-29T02:09:28.274Z,90.79
2023-11-29T02:14:31.715Z,90.75
2023-11-29T02:19:35.704Z,90.69
2023-11-29T02:24:44.127Z,90.82
2023-11-29T02:29:49.233Z,90.71
2023-11-29T02:34:55.437Z,90.74
2023-11-29T02:39:58.346Z,90.76
2023-11-29T02:45:03.579Z,90.78
2023-11-29T02:50:10.235Z,90.77
2023-11-29T02:55:13.335Z,90.79
2023-11-29T03:00:23.057Z,90.82
2023-11-29T03:05:26.124Z,90.78
2023-11-29T03:10:29.118Z,90.72
2023-11-29T03:15:32.002Z,90.74
2023-11-29T03:20:37.706Z,90.78
2023-11-29T03:25:40.624Z,90.81
2023-11-29T03:30:48.438Z,90.85
2023-11-29T03:35:51.349Z,90.83
2023-11-29T03:40:56.648Z,90.83
2023-11-29T03:46:03.184Z,90.86
2023-11-29T03:51:11.197Z,90.88
2023-11-29T03:56:14.000Z,90.86
2023-11-29T04:01:19.984Z,90.88
2023-11-29T04:06:29.995Z,90.88
2023-11-29T04:11:33.343Z,90.89
2023-11-29T04:16:40.063Z,90.85
2023-11-29T04:21:42.979Z,90.88
2023-11-29T04:26:50.980Z,90.79
2023-11-29T04:31:53.874Z,90.80
2023-11-29T04:37:00.407Z,90.80
2023-11-29T04:42:09.734Z,90.79
2023-11-29T04:47:14.704Z,90.79
2023-11-29T04:52:18.201Z,90.79
2023-11-29T04:57:24.303Z,90.74
2023-11-29T05:02:27.317Z,90.69
2023-11-29T05:07:34.257Z,90.60
2023-11-29T05:12:37.208Z,90.56
2023-11-29T05:17:44.277Z,90.51
2023-11-29T05:22:47.996Z,90.54
2023-11-29T05:27:55.429Z,90.57
2023-11-29T05:33:02.290Z,90.60
2023-11-29T05:38:06.536Z,90.56
2023-11-29T05:43:12.643Z,90.41
2023-11-29T05:48:19.174Z,90.39
2023-11-29T05:53:38.951Z,90.42
2023-11-29T05:58:52.769Z,90.45
2023-11-29T06:03:57.038Z,90.40
2023-11-29T06:09:10.515Z,90.39
2023-11-29T06:14:13.451Z,90.38
2023-11-29T06:19:16.539Z,90.38
2023-11-29T06:24:19.634Z,90.32
2023-11-29T06:29:28.164Z,90.27
2023-11-29T06:34:33.791Z,90.22
2023-11-29T06:39:39.149Z,90.29
2023-11-29T06:44:42.337Z,90.28
2023-11-29T06:49:46.153Z,90.21
2023-11-29T06:54:52.778Z,90.21
2023-11-29T06:59:55.774Z,90.20
2023-11-29T07:04:59.857Z,90.16
2023-11-29T07:10:06.354Z,90.13
2023-11-29T07:15:12.426Z,90.11
2023-11-29T07:20:21.239Z,90.10
2023-11-29T07:25:28.377Z,90.10
2023-11-29T07:30:33.552Z,90.09
2023-11-29T07:35:44.145Z,90.01
2023-11-29T07:40:48.557Z,90.00
2023-11-29T07:45:54.460Z,90.00
2023-11-29T07:51:02.921Z,89.92
2023-11-29T07:56:10.212Z,89.90
2023-11-29T08:01:17.500Z,89.89
2023-11-29T08:06:23.153Z,89.90
2023-11-29T08:11:27.269Z,89.86
2023-11-29T08:16:35.109Z,89.89
2023-11-29T08:21:38.085Z,89.90
2023-11-29T08:26:41.178Z,89.84
2023-11-29T08:31:45.936Z,89.57
2023-11-29T08:36:52.724Z,88.65
2023-11-29T08:41:56.421Z,87.99
2023-11-29T08:47:01.182Z,87.80
2023-11-29T08:52:08.087Z,88.20
2023-11-29T08:57:11.036Z,87.93
2023-11-29T09:02:14.091Z,87.96
2023-11-29T09:07:23.798Z,88.36
2023-11-29T09:12:29.025Z,88.55
2023-11-29T09:17:33.840Z,88.36
2023-11-29T09:22:47.425Z,88.79
2023-11-29T09:27:53.552Z,88.74
2023-11-29T09:32:57.286Z,88.75
2023-11-29T09:38:06.972Z,88.81
2023-11-29T09:43:11.646Z,88.92
2023-11-29T09:48:16.279Z,89.00
2023-11-29T09:53:19.577Z,89.00
2023-11-29T09:58:28.368Z,89.08
2023-11-29T10:03:32.844Z,89.04
2023-11-29T10:08:38.360Z,89.07
2023-11-29T10:13:45.082Z,89.02
2023-11-29T10:18:51.867Z,89.16
2023-11-29T10:23:58.275Z,89.18
2023-11-29T10:29:04.162Z,89.20
2023-11-29T10:34:13.354Z,89.09
2023-11-29T10:39:24.376Z,89.05
2023-11-29T10:44:43.559Z,89.08
2023-11-29T10:50:06.072Z,89.08
2023-11-29T10:55:10.504Z,89.14
2023-11-29T11:00:19.118Z,89.11
2023-11-29T11:05:30.433Z,89.05
2023-11-29T11:10:35.697Z,89.10
2023-11-29T11:15:39.533Z,89.01
2023-11-29T11:20:50.214Z,89.00
2023-11-29T11:26:10.755Z,89.06
2023-11-29T11:31:18.070Z,89.00
2023-11-29T11:36:26.390Z,88.92
2023-11-29T11:41:29.587Z,89.00
2023-11-29T11:46:33.606Z,89.01
2023-11-29T11:51:39.191Z,88.93
2023-11-29T11:56:42.401Z,88.97
2023-11-29T12:01:46.338Z,88.83
2023-11-29T12:06:53.457Z,88.96
2023-11-29T12:12:17.134Z,89.00
2023-11-29T12:17:21.113Z,88.86
2023-11-29T12:22:29.015Z,88.82
2023-11-29T12:27:32.688Z,88.89
2023-11-29T12:32:35.755Z,88.89
2023-11-29T12:37:44.570Z,88.85
2023-11-29T12:42:50.592Z,88.80
2023-11-29T12:48:04.365Z,88.77
2023-11-29T12:53:08.311Z,88.84
2023-11-29T12:58:11.245Z,88.82
2023-11-29T13:03:19.924Z,88.87
2023-11-29T13:08:23.215Z,88.89
2023-11-29T13:13:29.421Z,88.89
2023-11-29T13:18:35.204Z,88.90
2023-11-29T13:23:39.541Z,88.93
2023-11-29T13:28:45.989Z,88.96
2023-11-29T13:33:52.065Z,88.97
2023-11-29T13:38:55.301Z,88.97
2023-11-29T13:44:00.865Z,88.97
2023-11-29T13:49:05.764Z,89.00
2023-11-29T13:54:09.215Z,89.00
2023-11-29T13:59:13.527Z,89.02
2023-11-29T14:04:25.904Z,89.10
2023-11-29T14:09:36.908Z,89.03
2023-11-29T14:14:40.895Z,89.08
2023-11-29T14:19:44.035Z,89.08
2023-11-29T14:24:49.277Z,89.09
2023-11-29T14:29:52.213Z,89.10
2023-11-29T14:34:55.507Z,89.12
2023-11-29T14:39:58.398Z,89.16
2023-11-29T14:45:05.011Z,89.15
2023-11-29T14:50:09.396Z,89.11
2023-11-29T14:55:12.383Z,89.22
2023-11-29T15:00:22.145Z,89.31
2023-11-29T15:05:25.172Z,89.39
2023-11-29T15:10:29.761Z,89.37
2023-11-29T15:15:34.411Z,89.40
2023-11-29T15:20:37.378Z,89.56
2023-11-29T15:25:40.328Z,89.62
2023-11-29T15:30:43.316Z,89.57
2023-11-29T15:35:46.403Z,89.72
2023-11-29T15:40:50.763Z,89.75
2023-11-29T15:45:54.032Z,89.79
2023-11-29T15:50:57.503Z,89.86
2023-11-29T15:56:01.128Z,89.90
2023-11-29T16:01:07.105Z,89.82
2023-11-29T16:06:16.633Z,89.89
2023-11-29T16:11:21.361Z,89.90
2023-11-29T16:16:26.655Z,89.89
2023-11-29T16:21:34.071Z,89.94
2023-11-29T16:26:38.339Z,89.88
2023-11-29T16:31:41.352Z,89.89
2023-11-29T16:36:46.493Z,89.73
2023-11-29T16:41:49.704Z,89.81
2023-11-29T16:46:55.009Z,90.00
2023-11-29T16:51:58.283Z,89.90
2023-11-29T16:57:01.079Z,89.86
2023-11-29T17:02:04.874Z,89.93
2023-11-29T17:07:08.448Z,89.94
2023-11-29T17:12:18.165Z,89.94
2023-11-29T17:17:23.599Z,89.93
2023-11-29T17:22:31.570Z,89.85
2023-11-29T17:27:37.474Z,89.90
2023-11-29T17:32:41.583Z,89.90
2023-11-29T17:37:44.557Z,89.93
2023-11-29T17:42:52.387Z,89.89
2023-11-29T17:47:55.362Z,89.82
2023-11-29T17:53:04.269Z,89.73
2023-11-29T17:58:09.634Z,89.81
2023-11-29T18:03:12.834Z,89.84
2023-11-29T18:08:16.335Z,89.90
2023-11-29T18:13:21.955Z,89.89
2023-11-29T18:18:25.163Z,89.82
2023-11-29T18:23:33.999Z,89.81
2023-11-29T18:28:37.129Z,90.11
2023-11-29T18:33:40.977Z,90.05
2023-11-29T18:38:44.849Z,89.87
2023-11-29T18:43:50.949Z,89.85
2023-11-29T18:48:59.434Z,89.86
2023-11-29T18:54:02.937Z,89.80
2023-11-29T18:59:06.020Z,89.87
2023-11-29T19:04:09.374Z,89.75
2023-11-29T19:09:15.740Z,89.82
2023-11-29T19:14:18.886Z,89.99
2023-11-29T19:19:21.889Z,89.78
2023-11-29T19:24:26.361Z,89.66
2023-11-29T19:29:34.507Z,89.89
2023-11-29T19:34:37.368Z,90.01
2023-11-29T19:39:40.758Z,90.03
2023-11-29T19:44:46.677Z,90.04
2023-11-29T19:49:49.787Z,90.00
2023-11-29T19:54:52.828Z,89.92
2023-11-29T19:59:59.064Z,89.78
2023-11-29T20:05:02.143Z,90.02
2023-11-29T20:10:06.040Z,90.04
2023-11-29T20:15:10.012Z,90.08
2023-11-29T20:20:23.915Z,89.96
2023-11-29T20:25:35.150Z,90.00
2023-11-29T20:30:39.101Z,89.99
2023-11-29T20:35:45.028Z,90.00
2023-11-29T20:40:52.794Z,89.97
2023-11-29T20:45:55.753Z,89.91
2023-11-29T20:51:02.066Z,89.89
2023-11-29T20:56:06.213Z,89.79
2023-11-29T21:01:10.269Z,89.79
2023-11-29T21:06:13.211Z,89.73
2023-11-29T21:11:19.230Z,89.64
2023-11-29T21:16:22.422Z,89.79
2023-11-29T21:21:25.446Z,89.84
2023-11-29T21:26:28.557Z,89.79
2023-11-29T21:31:33.420Z,89.61
2023-11-29T21:36:37.969Z,89.68
2023-11-29T21:41:41.257Z,89.72
2023-11-29T21:46:46.203Z,89.51
2023-11-29T21:51:55.857Z,89.47
2023-11-29T21:57:05.509Z,89.60
2023-11-29T22:02:08.523Z,89.56
2023-11-29T22:07:16.865Z,89.56
2023-11-29T22:12:19.760Z,89.46
2023-11-29T22:17:22.699Z,89.38
2023-11-29T22:22:25.711Z,89.46
2023-11-29T22:27:28.913Z,89.57
2023-11-29T22:32:31.872Z,89.47
2023-11-29T22:37:36.100Z,89.26
2023-11-29T22:42:39.191Z,89.36
2023-11-29T22:47:43.274Z,89.46
2023-11-29T22:52:47.787Z,89.49
2023-11-29T22:57:52.093Z,89.37
2023-11-29T23:02:57.986Z,89.22
2023-11-29T23:08:01.152Z,89.23
2023-11-29T23:13:04.006Z,89.36
2023-11-29T23:18:10.875Z,89.49
2023-11-29T23:23:20.250Z,89.49
2023-11-29T23:28:27.356Z,89.46
2023-11-29T23:33:35.929Z,89.42
2023-11-29T23:38:39.997Z,89.39
2023-11-29T23:43:43.064Z,89.43
2023-11-29T23:48:48.825Z,89.36
2023-11-29T23:53:54.586Z,89.08
2023-11-29T23:59:01.001Z,89.15
